createdAt,value
2019-05-22T00:02:21.187Z,24.87
2019-05-22T00:07:23.595Z,24.17
2019-05-22T00:12:27.935Z,22.90
2019-05-22T00:17:31.824Z,23.87
2019-05-22T00:22:37.062Z,24.33
2019-05-22T00:27:40.004Z,21.53
2019-05-22T00:32:42.995Z,19.77
2019-05-22T00:37:46.962Z,18.77
2019-05-22T00:43:03.330Z,19.07
2019-05-22T00:47:57.221Z,18.60
2019-05-22T00:53:01.695Z,17.20
2019-05-22T00:58:11.177Z,16.90
2019-05-22T01:03:17.163Z,16.27
2019-05-22T01:08:21.261Z,13.80
2019-05-22T01:13:26.531Z,13.30
2019-05-22T01:18:31.840Z,12.57
2019-05-22T01:23:36.390Z,12.37
2019-05-22T01:28:39.087Z,12.30
2019-05-22T01:33:58.871Z,12.73
2019-05-22T01:39:29.047Z,12.20
2019-05-22T01:44:33.825Z,12.67
2019-05-22T01:49:47.224Z,11.50
2019-05-22T01:54:52.008Z,10.63
2019-05-22T01:59:56.549Z,9.47
2019-05-22T02:05:01.455Z,9.03
2019-05-22T02:10:07.103Z,8.33
2019-05-22T02:15:11.606Z,6.93
2019-05-22T02:20:15.650Z,7.07
2019-05-22T02:25:20.375Z,6.90
2019-05-22T02:30:24.269Z,6.60
2019-05-22T02:35:26.922Z,7.40
2019-05-22T02:40:34.474Z,7.50
2019-05-22T02:45:37.089Z,6.97
2019-05-22T02:50:39.834Z,6.90
2019-05-22T02:55:42.757Z,8.03
2019-05-22T03:00:57.501Z,8.50
2019-05-22T03:06:03.634Z,8.83
2019-05-22T03:11:05.929Z,9.37
2019-05-22T03:16:09.151Z,10.03
2019-05-22T03:21:12.022Z,9.60
2019-05-22T03:26:18.773Z,9.27
2019-05-22T03:31:22.709Z,9.30
2019-05-22T03:36:27.089Z,9.00
2019-05-22T03:41:29.518Z,10.07
2019-05-22T03:46:43.621Z,9.73
2019-05-22T03:51:51.864Z,10.77
2019-05-22T03:56:54.922Z,10.67
2019-05-22T04:02:00.099Z,10.87
2019-05-22T04:07:05.357Z,10.73
2019-05-22T04:12:10.117Z,11.43
2019-05-22T04:17:14.368Z,11.33
2019-05-22T04:22:17.527Z,10.87
2019-05-22T04:27:21.948Z,9.77
2019-05-22T04:32:36.625Z,9.80
2019-05-22T04:37:41.400Z,10.13
2019-05-22T04:42:44.188Z,10.70
2019-05-22T04:47:56.643Z,10.67
2019-05-22T04:53:00.656Z,9.87
2019-05-22T04:58:08.007Z,9.57
2019-05-22T05:03:10.735Z,8.00
2019-05-22T05:08:14.836Z,6.70
2019-05-22T05:13:19.056Z,6.40
2019-05-22T05:18:22.196Z,6.07
2019-05-22T05:23:25.738Z,6.23
2019-05-22T05:28:28.984Z,5.67
2019-05-22T05:33:42.911Z,5.27
2019-05-22T05:38:46.393Z,5.63
2019-05-22T05:43:49.496Z,6.57
2019-05-22T05:48:51.682Z,5.80
2019-05-22T05:54:03.193Z,7.00
2019-05-22T05:59:07.619Z,7.37
2019-05-22T06:04:11.880Z,8.60
2019-05-22T06:09:19.628Z,7.33
2019-05-22T06:14:24.999Z,7.83
2019-05-22T06:19:31.132Z,7.73
2019-05-22T06:24:59.608Z,7.97
2019-05-22T06:30:13.118Z,8.00
2019-05-22T06:35:16.691Z,7.03
2019-05-22T06:40:20.666Z,7.20
2019-05-22T06:45:23.195Z,8.67
2019-05-22T06:50:26.461Z,7.30
2019-05-22T06:55:29.023Z,6.87
2019-05-22T07:00:31.825Z,6.63
2019-05-22T07:05:34.368Z,6.87
2019-05-22T07:10:38.607Z,6.50
2019-05-22T07:15:45.772Z,7.10
2019-05-22T07:20:49.864Z,6.20
2019-05-22T07:25:54.370Z,6.70
2019-05-22T07:30:57.665Z,6.53
2019-05-22T07:36:17.288Z,6.00
2019-05-22T07:41:05.324Z,6.13
2019-05-22T07:46:08.068Z,6.00
2019-05-22T07:51:11.868Z,5.73
2019-05-22T07:56:14.865Z,5.43
2019-05-22T08:01:18.810Z,6.23
2019-05-22T08:06:22.301Z,6.33
2019-05-22T08:11:25.628Z,5.87
2019-05-22T08:16:29.154Z,5.33
2019-05-22T08:21:32.483Z,5.53
2019-05-22T08:26:51.634Z,5.50
2019-05-22T08:31:40.888Z,5.57
2019-05-22T08:36:48.082Z,5.80
2019-05-22T08:41:52.810Z,5.67
2019-05-22T08:46:56.291Z,5.43
2019-05-22T08:51:59.790Z,5.33
2019-05-22T08:57:03.730Z,5.80
2019-05-22T09:02:08.385Z,5.77
2019-05-22T09:07:11.005Z,5.90
2019-05-22T09:12:16.080Z,5.70
2019-05-22T09:17:20.637Z,6.23
2019-05-22T09:22:37.830Z,6.40
2019-05-22T09:27:28.517Z,6.23
2019-05-22T09:32:31.755Z,6.30
2019-05-22T09:37:34.259Z,4.93
2019-05-22T09:42:37.590Z,5.63
2019-05-22T09:47:40.221Z,5.80
2019-05-22T09:52:56.809Z,5.60
2019-05-22T09:57:52.106Z,6.10
2019-05-22T10:02:54.433Z,5.10
2019-05-22T10:08:01.625Z,5.07
2019-05-22T10:13:05.411Z,5.13
2019-05-22T10:18:08.330Z,4.73
2019-05-22T10:23:16.111Z,4.93
2019-05-22T10:28:16.320Z,5.10
2019-05-22T10:33:19.158Z,4.77
2019-05-22T10:38:22.672Z,5.57
2019-05-22T10:43:26.172Z,5.47
2019-05-22T10:48:28.948Z,6.33
2019-05-22T10:53:34.208Z,5.43
2019-05-22T10:58:36.577Z,5.53
2019-05-22T11:03:39.398Z,5.83
2019-05-22T11:08:43.437Z,6.03
2019-05-22T11:14:00.782Z,7.53
2019-05-22T11:18:51.953Z,6.93
2019-05-22T11:23:54.378Z,7.90
2019-05-22T11:28:56.900Z,8.77
2019-05-22T11:33:59.329Z,8.73
2019-05-22T11:39:01.948Z,9.03
2019-05-22T11:44:06.181Z,9.63
2019-05-22T11:49:09.338Z,10.33
2019-05-22T11:54:13.069Z,11.50
2019-05-22T11:59:15.622Z,12.60
2019-05-22T12:04:19.345Z,12.20
2019-05-22T12:09:22.395Z,11.80
2019-05-22T12:14:25.455Z,11.63
2019-05-22T12:19:30.251Z,13.00
2019-05-22T12:24:37.410Z,13.87
2019-05-22T12:29:38.043Z,13.00
2019-05-22T12:34:41.149Z,13.23
2019-05-22T12:39:44.351Z,12.97
2019-05-22T12:44:47.149Z,13.30
2019-05-22T12:49:50.339Z,12.87
2019-05-22T12:54:54.089Z,12.43
2019-05-22T13:00:01.849Z,12.47
2019-05-22T13:05:02.361Z,14.07
2019-05-22T13:10:06.109Z,13.87
2019-05-22T13:15:10.810Z,14.03
2019-05-22T13:20:19.190Z,13.80
2019-05-22T13:25:33.187Z,13.67
2019-05-22T13:30:38.660Z,13.83
2019-05-22T13:35:42.707Z,14.93
2019-05-22T13:40:46.492Z,14.67
2019-05-22T13:45:50.525Z,15.40
2019-05-22T13:50:55.552Z,16.33
2019-05-22T13:55:58.399Z,14.67
2019-05-22T14:01:01.271Z,13.90
2019-05-22T14:06:04.240Z,14.27
2019-05-22T14:11:08.031Z,14.57
2019-05-22T14:16:11.116Z,15.37
2019-05-22T14:21:13.831Z,14.50
2019-05-22T14:26:16.337Z,14.00
2019-05-22T14:31:19.272Z,14.07
2019-05-22T14:36:22.980Z,13.37
2019-05-22T14:41:25.321Z,15.20
2019-05-22T14:46:29.436Z,14.50
2019-05-22T14:51:32.471Z,13.97
2019-05-22T14:56:36.160Z,14.20
2019-05-22T15:01:39.089Z,14.50
2019-05-22T15:06:42.678Z,13.70
2019-05-22T15:11:45.055Z,13.83
2019-05-22T15:16:47.582Z,14.07
2019-05-22T15:21:50.212Z,13.60
2019-05-22T15:26:53.052Z,13.33
2019-05-22T15:31:56.061Z,13.60
2019-05-22T15:36:58.980Z,12.60
2019-05-22T15:42:04.843Z,12.57
2019-05-22T15:47:07.959Z,11.60
2019-05-22T15:52:14.507Z,11.07
2019-05-22T15:57:19.376Z,10.90
2019-05-22T16:02:23.648Z,11.20
2019-05-22T16:07:28.012Z,11.43
2019-05-22T16:12:31.448Z,11.70
2019-05-22T16:17:41.371Z,12.10
2019-05-22T16:22:42.561Z,11.07
2019-05-22T16:27:46.979Z,11.00
2019-05-22T16:32:51.304Z,10.53
2019-05-22T16:37:57.516Z,9.87
2019-05-22T16:43:00.053Z,9.77
2019-05-22T16:48:04.893Z,9.03
2019-05-22T16:53:10.106Z,9.20
2019-05-22T16:58:14.317Z,9.57
2019-05-22T17:03:18.287Z,8.33
2019-05-22T17:08:21.771Z,8.07
2019-05-22T17:13:29.965Z,7.47
2019-05-22T17:18:47.267Z,7.50
2019-05-22T17:23:37.896Z,8.60
2019-05-22T17:28:40.586Z,6.87
2019-05-22T17:33:43.193Z,7.10
2019-05-22T17:38:46.707Z,6.87
2019-05-22T17:43:49.195Z,7.60
2019-05-22T17:48:53.009Z,6.83
2019-05-22T17:53:55.264Z,7.73
2019-05-22T17:58:57.683Z,6.63
2019-05-22T18:04:01.424Z,7.67
2019-05-22T18:09:06.976Z,6.60
2019-05-22T18:14:10.126Z,7.50
2019-05-22T18:19:12.531Z,7.33
2019-05-22T18:24:15.574Z,7.40
2019-05-22T18:29:18.679Z,6.97
2019-05-22T18:34:21.220Z,6.83
2019-05-22T18:39:25.041Z,7.07
2019-05-22T18:44:28.129Z,6.93
2019-05-22T18:49:31.309Z,5.90
2019-05-22T18:54:33.519Z,5.90
2019-05-22T18:59:35.741Z,5.50
2019-05-22T19:04:38.401Z,5.53
2019-05-22T19:09:41.537Z,5.57
2019-05-22T19:14:44.092Z,5.10
2019-05-22T19:19:47.986Z,4.97
2019-05-22T19:24:51.216Z,4.93
2019-05-22T19:29:54.231Z,5.00
2019-05-22T19:34:56.883Z,4.27
2019-05-22T19:39:59.969Z,4.83
2019-05-22T19:45:05.231Z,4.30
2019-05-22T19:50:22.877Z,4.10
2019-05-22T19:55:18.648Z,4.50
2019-05-22T20:00:21.562Z,4.50
2019-05-22T20:05:24.932Z,4.43
2019-05-22T20:10:27.390Z,4.80
2019-05-22T20:15:29.984Z,4.07
2019-05-22T20:20:32.645Z,4.57
2019-05-22T20:25:35.154Z,4.57
2019-05-22T20:30:37.649Z,4.70
2019-05-22T20:35:40.955Z,4.40
2019-05-22T20:40:44.258Z,4.30
2019-05-22T20:45:47.569Z,4.83
2019-05-22T20:50:50.399Z,4.20
2019-05-22T20:55:54.126Z,4.57
2019-05-22T21:00:57.755Z,4.20
2019-05-22T21:06:02.530Z,4.47
2019-05-22T21:11:07.953Z,4.77
2019-05-22T21:16:12.301Z,4.50
2019-05-22T21:21:14.951Z,4.43
2019-05-22T21:26:18.289Z,4.30
2019-05-22T21:31:21.127Z,4.47
2019-05-22T21:36:24.015Z,4.77
2019-05-22T21:41:26.720Z,4.37
2019-05-22T21:46:29.980Z,4.47
2019-05-22T21:51:33.946Z,4.00
2019-05-22T21:56:37.460Z,5.47
2019-05-22T22:01:54.922Z,4.57
2019-05-22T22:06:59.257Z,4.30
2019-05-22T22:12:03.979Z,4.33
2019-05-22T22:17:09.509Z,4.33
2019-05-22T22:22:19.467Z,4.60
2019-05-22T22:27:22.130Z,4.43
2019-05-22T22:32:26.698Z,4.30
2019-05-22T22:37:30.555Z,4.80
2019-05-22T22:42:36.838Z,4.43
2019-05-22T22:47:42.481Z,5.20
2019-05-22T22:52:45.673Z,4.77
2019-05-22T22:57:51.160Z,4.67
2019-05-22T23:02:56.061Z,4.60
2019-05-22T23:07:59.065Z,4.97
2019-05-22T23:13:04.585Z,4.33
2019-05-22T23:18:08.080Z,4.53
2019-05-22T23:23:09.311Z,4.73
2019-05-22T23:28:12.321Z,4.83
2019-05-22T23:33:15.106Z,4.50
2019-05-22T23:38:17.722Z,4.27
2019-05-22T23:43:20.920Z,5.07
2019-05-22T23:48:26.995Z,4.57
2019-05-22T23:53:32.195Z,4.13
2019-05-22T23:58:49.916Z,4.13
